createdAt,value
2022-08-03T00:02:29.267Z,19.71
2022-08-03T00:05:33.453Z,19.74
2022-08-03T00:08:40.113Z,19.44
2022-08-03T00:11:42.906Z,19.44
2022-08-03T00:14:45.530Z,19.81
2022-08-03T00:17:53.287Z,19.65
2022-08-03T00:20:56.546Z,19.51
2022-08-03T00:23:58.970Z,19.38
2022-08-03T00:27:01.379Z,19.67
2022-08-03T00:30:04.013Z,19.78
2022-08-03T00:33:06.607Z,19.70
2022-08-03T00:36:10.665Z,19.81
2022-08-03T00:39:13.067Z,19.34
2022-08-03T00:42:16.011Z,19.34
2022-08-03T00:45:19.908Z,19.12
2022-08-03T00:48:33.370Z,19.31
2022-08-03T00:51:36.335Z,19.19
2022-08-03T00:54:38.912Z,19.19
2022-08-03T00:57:42.999Z,19.35
2022-08-03T01:00:45.526Z,19.22
2022-08-03T01:03:47.949Z,19.33
2022-08-03T01:07:10.693Z,19.09
2022-08-03T01:10:23.352Z,18.95
2022-08-03T01:14:03.537Z,19.13
2022-08-03T01:17:31.995Z,19.09
2022-08-03T01:20:36.968Z,19.12
2022-08-03T01:23:42.225Z,19.07
2022-08-03T01:27:05.530Z,19.00
2022-08-03T01:30:09.195Z,19.09
2022-08-03T01:33:42.418Z,19.02
2022-08-03T01:36:51.361Z,19.14
2022-08-03T01:39:56.501Z,19.02
2022-08-03T01:43:02.143Z,18.89
2022-08-03T01:46:05.503Z,18.59
2022-08-03T01:49:13.309Z,18.53
2022-08-03T01:52:19.646Z,18.62
2022-08-03T01:55:23.816Z,18.73
2022-08-03T01:58:28.620Z,18.52
2022-08-03T02:02:15.494Z,18.48
2022-08-03T02:04:58.718Z,18.47
2022-08-03T02:08:04.810Z,18.27
2022-08-03T02:11:07.412Z,17.96
2022-08-03T02:14:11.287Z,18.20
2022-08-03T02:17:14.698Z,18.25
2022-08-03T02:20:18.355Z,18.31
2022-08-03T02:23:20.986Z,18.32
2022-08-03T02:26:24.562Z,18.32
2022-08-03T02:29:40.332Z,18.21
2022-08-03T02:32:48.902Z,18.44
2022-08-03T02:35:52.809Z,18.52
2022-08-03T02:38:59.300Z,18.58
2022-08-03T02:42:05.588Z,18.04
2022-08-03T02:45:14.677Z,17.73
2022-08-03T02:48:20.499Z,17.47
2022-08-03T02:51:24.044Z,16.81
2022-08-03T02:54:27.843Z,16.79
2022-08-03T02:57:33.651Z,16.61
2022-08-03T03:00:38.027Z,17.04
2022-08-03T03:03:44.845Z,17.20
2022-08-03T03:06:48.925Z,17.45
2022-08-03T03:09:52.036Z,17.49
2022-08-03T03:12:57.176Z,17.54
2022-08-03T03:16:06.221Z,17.57
2022-08-03T03:19:11.526Z,17.62
2022-08-03T03:22:21.889Z,17.56
2022-08-03T03:25:24.694Z,17.25
2022-08-03T03:28:27.418Z,17.45
2022-08-03T03:31:30.216Z,17.19
2022-08-03T03:34:33.708Z,17.50
2022-08-03T03:37:36.102Z,17.67
2022-08-03T03:40:39.286Z,17.60
2022-08-03T03:43:41.836Z,17.19
2022-08-03T03:46:44.531Z,17.26
2022-08-03T03:49:47.183Z,16.58
2022-08-03T03:52:50.834Z,16.71
2022-08-03T03:56:02.472Z,16.92
2022-08-03T03:59:05.466Z,16.47
2022-08-03T04:02:09.227Z,16.34
2022-08-03T04:05:30.569Z,16.63
2022-08-03T04:08:51.722Z,16.91
2022-08-03T04:11:56.971Z,16.96
2022-08-03T04:15:01.282Z,16.84
2022-08-03T04:18:04.577Z,17.25
2022-08-03T04:21:11.027Z,17.50
2022-08-03T04:24:14.292Z,17.76
2022-08-03T04:27:20.875Z,17.98
2022-08-03T04:30:23.565Z,17.94
2022-08-03T04:33:29.608Z,17.97
2022-08-03T04:36:37.293Z,18.02
2022-08-03T04:39:43.362Z,18.20
2022-08-03T04:42:47.042Z,18.34
2022-08-03T04:45:52.368Z,18.55
2022-08-03T04:49:02.493Z,18.68
2022-08-03T04:52:07.330Z,18.76
2022-08-03T04:55:10.016Z,18.89
2022-08-03T04:58:12.761Z,19.04
2022-08-03T05:01:16.564Z,19.24
2022-08-03T05:04:19.671Z,19.33
2022-08-03T05:07:25.124Z,19.47
2022-08-03T05:10:30.160Z,19.65
2022-08-03T05:13:32.620Z,19.86
2022-08-03T05:16:35.063Z,20.13
2022-08-03T05:19:37.662Z,20.40
2022-08-03T05:22:42.790Z,20.72
2022-08-03T05:25:49.568Z,20.95
2022-08-03T05:28:53.148Z,21.21
2022-08-03T05:31:55.980Z,21.44
2022-08-03T05:34:58.338Z,21.74
2022-08-03T05:38:01.647Z,21.88
2022-08-03T05:41:23.292Z,22.07
2022-08-03T05:44:26.950Z,22.36
2022-08-03T05:47:29.282Z,22.56
2022-08-03T05:50:32.471Z,22.81
2022-08-03T05:53:35.243Z,22.88
2022-08-03T05:56:37.741Z,23.08
2022-08-03T05:59:40.151Z,23.23
2022-08-03T06:02:58.252Z,23.55
2022-08-03T06:06:00.839Z,23.96
2022-08-03T06:09:03.494Z,24.34
2022-08-03T06:12:05.940Z,24.72
2022-08-03T06:15:11.285Z,24.80
2022-08-03T06:18:14.044Z,24.95
2022-08-03T06:21:16.602Z,25.10
2022-08-03T06:24:19.017Z,25.19
2022-08-03T06:27:36.715Z,25.61
2022-08-03T06:30:43.392Z,26.12
2022-08-03T06:33:48.476Z,26.53
2022-08-03T06:37:08.115Z,26.53
2022-08-03T06:40:13.971Z,26.45
2022-08-03T06:43:16.460Z,26.63
2022-08-03T06:46:19.103Z,26.72
2022-08-03T06:49:21.619Z,26.79
2022-08-03T06:52:38.429Z,27.11
2022-08-03T06:55:42.493Z,27.40
2022-08-03T06:58:44.979Z,27.62
2022-08-03T07:01:50.354Z,27.85
2022-08-03T07:04:52.806Z,28.22
2022-08-03T07:07:57.419Z,28.50
2022-08-03T07:10:59.794Z,28.80
2022-08-03T07:14:02.202Z,29.26
2022-08-03T07:17:11.508Z,29.39
2022-08-03T07:20:15.329Z,29.74
2022-08-03T07:23:19.079Z,30.00
2022-08-03T07:26:21.886Z,30.10
2022-08-03T07:29:25.354Z,29.97
2022-08-03T07:32:31.103Z,30.48
2022-08-03T07:35:33.609Z,30.69
2022-08-03T07:38:37.113Z,30.74
2022-08-03T07:41:39.467Z,30.75
2022-08-03T07:44:44.201Z,31.11
2022-08-03T07:47:53.296Z,31.19
2022-08-03T07:50:56.157Z,31.12
2022-08-03T07:53:59.192Z,31.72
2022-08-03T07:57:01.562Z,31.09
2022-08-03T08:00:14.292Z,31.27
2022-08-03T08:03:16.883Z,31.87
2022-08-03T08:06:19.432Z,31.80
2022-08-03T08:09:23.528Z,32.20
2022-08-03T08:12:25.887Z,32.07
2022-08-03T08:15:28.337Z,32.25
2022-08-03T08:18:30.909Z,32.56
2022-08-03T08:21:53.489Z,32.83
2022-08-03T08:24:55.653Z,32.68
2022-08-03T08:28:29.706Z,32.87
2022-08-03T08:31:21.257Z,33.47
2022-08-03T08:34:23.643Z,34.29
2022-08-03T08:37:26.077Z,34.76
2022-08-03T08:40:28.692Z,34.22
2022-08-03T08:43:31.130Z,34.46
2022-08-03T08:46:34.212Z,34.42
2022-08-03T08:49:38.952Z,34.65
2022-08-03T08:52:43.569Z,34.62
2022-08-03T08:55:56.878Z,33.56
2022-08-03T08:59:02.943Z,34.46
2022-08-03T09:02:06.242Z,34.73
2022-08-03T09:05:13.329Z,34.63
2022-08-03T09:08:15.867Z,34.60
2022-08-03T09:11:53.198Z,34.82
2022-08-03T09:15:07.273Z,35.02
2022-08-03T09:18:09.565Z,35.30
2022-08-03T09:21:33.981Z,35.50
2022-08-03T09:24:41.619Z,35.94
2022-08-03T09:27:45.853Z,36.21
2022-08-03T09:31:11.224Z,35.96
2022-08-03T09:34:16.471Z,36.62
2022-08-03T09:37:21.213Z,36.11
2022-08-03T09:40:45.261Z,35.43
2022-08-03T09:43:47.732Z,35.08
2022-08-03T09:46:52.257Z,35.37
2022-08-03T09:50:08.579Z,35.98
2022-08-03T09:53:12.507Z,36.73
2022-08-03T09:56:35.783Z,37.24
2022-08-03T09:59:39.172Z,36.97
2022-08-03T10:02:45.225Z,36.57
2022-08-03T10:05:47.652Z,35.48
2022-08-03T10:09:10.886Z,36.42
2022-08-03T10:12:14.094Z,36.90
2022-08-03T10:16:23.718Z,37.57
2022-08-03T10:18:39.190Z,38.09
2022-08-03T10:21:48.041Z,37.66
2022-08-03T10:24:58.458Z,37.75
2022-08-03T10:28:04.511Z,38.16
2022-08-03T10:31:08.250Z,38.54
2022-08-03T10:34:35.204Z,38.45
2022-08-03T10:37:57.156Z,39.28
2022-08-03T10:41:02.178Z,39.81
2022-08-03T10:44:15.817Z,40.15
2022-08-03T10:47:18.682Z,40.21
2022-08-03T10:50:24.320Z,39.58
2022-08-03T10:53:47.732Z,39.56
2022-08-03T10:57:16.870Z,40.50
2022-08-03T11:00:25.211Z,40.80
2022-08-03T11:03:27.632Z,39.38
2022-08-03T11:06:37.160Z,39.62
2022-08-03T11:09:48.826Z,39.84
2022-08-03T11:12:51.429Z,39.81
2022-08-03T11:16:00.522Z,39.65
2022-08-03T11:19:12.144Z,40.09
2022-08-03T11:22:22.131Z,40.06
2022-08-03T11:25:53.970Z,40.85
2022-08-03T11:28:48.396Z,41.08
2022-08-03T11:31:51.778Z,41.32
2022-08-03T11:35:13.275Z,41.15
2022-08-03T11:38:15.930Z,41.57
2022-08-03T11:41:42.728Z,41.73
2022-08-03T11:44:48.703Z,41.93
2022-08-03T11:47:55.197Z,41.87
2022-08-03T11:50:57.775Z,42.27
2022-08-03T11:54:05.505Z,42.00
2022-08-03T11:57:07.908Z,41.12
2022-08-03T12:00:32.703Z,41.45
2022-08-03T12:03:35.604Z,40.81
2022-08-03T12:06:56.328Z,41.14
2022-08-03T12:10:13.110Z,41.69
2022-08-03T12:14:10.468Z,41.83
2022-08-03T12:16:38.314Z,42.03
2022-08-03T12:19:43.005Z,40.98
2022-08-03T12:22:45.485Z,41.52
2022-08-03T12:25:49.583Z,41.62
2022-08-03T12:28:52.179Z,40.48
2022-08-03T12:31:56.100Z,41.02
2022-08-03T12:35:01.364Z,41.53
2022-08-03T12:38:06.735Z,41.59
2022-08-03T12:41:16.105Z,41.50
2022-08-03T12:44:18.600Z,41.35
2022-08-03T12:47:21.249Z,41.45
2022-08-03T12:50:41.715Z,41.24
2022-08-03T12:53:52.617Z,40.60
2022-08-03T12:57:07.032Z,41.08
2022-08-03T13:00:21.248Z,41.25
2022-08-03T13:03:39.044Z,39.93
2022-08-03T13:06:44.644Z,40.41
2022-08-03T13:09:51.119Z,40.48
2022-08-03T13:12:53.494Z,40.75
2022-08-03T13:15:55.891Z,41.45
2022-08-03T13:18:58.286Z,40.43
2022-08-03T13:22:04.362Z,40.78
2022-08-03T13:25:08.586Z,39.55
2022-08-03T13:28:14.138Z,39.92
2022-08-03T13:31:16.912Z,40.24
2022-08-03T13:34:22.905Z,40.56
2022-08-03T13:37:27.091Z,41.39
2022-08-03T13:40:36.739Z,41.11
2022-08-03T13:43:44.238Z,40.67
2022-08-03T13:46:49.344Z,39.44
2022-08-03T13:49:59.389Z,39.51
2022-08-03T13:53:04.454Z,39.31
2022-08-03T13:56:09.889Z,39.64
2022-08-03T13:59:12.267Z,39.97
2022-08-03T14:02:14.856Z,40.23
2022-08-03T14:05:17.440Z,39.46
2022-08-03T14:08:19.838Z,38.71
2022-08-03T14:12:08.467Z,39.19
2022-08-03T14:14:51.205Z,39.97
2022-08-03T14:17:53.568Z,40.05
2022-08-03T14:21:03.447Z,40.39
2022-08-03T14:24:08.257Z,40.51
2022-08-03T14:27:10.708Z,40.46
2022-08-03T14:30:13.481Z,39.79
2022-08-03T14:33:16.046Z,39.82
2022-08-03T14:36:18.655Z,39.37
2022-08-03T14:39:23.088Z,38.86
2022-08-03T14:42:25.725Z,39.11
2022-08-03T14:45:28.236Z,39.08
2022-08-03T14:50:34.601Z,38.80
2022-08-03T14:51:54.006Z,38.63
2022-08-03T14:54:56.786Z,38.15
2022-08-03T14:58:00.167Z,38.05
2022-08-03T15:01:02.649Z,38.35
2022-08-03T15:04:05.449Z,38.01
2022-08-03T15:07:07.908Z,37.62
2022-08-03T15:10:10.291Z,37.08
2022-08-03T15:13:13.305Z,37.35
2022-08-03T15:16:15.698Z,36.60
2022-08-03T15:20:00.881Z,35.91
2022-08-03T15:22:40.812Z,35.70
2022-08-03T15:26:30.331Z,35.80
2022-08-03T15:29:08.164Z,35.31
2022-08-03T15:32:10.536Z,35.29
2022-08-03T15:35:19.413Z,35.41
2022-08-03T15:38:25.676Z,35.86
2022-08-03T15:41:28.749Z,36.02
2022-08-03T15:44:31.164Z,35.95
2022-08-03T15:47:33.523Z,35.43
2022-08-03T15:50:36.159Z,35.38
2022-08-03T15:53:41.369Z,35.33
2022-08-03T15:56:46.570Z,35.20
2022-08-03T15:59:48.957Z,35.37
2022-08-03T16:02:55.711Z,35.17
2022-08-03T16:05:59.287Z,35.13
2022-08-03T16:09:01.760Z,35.06
2022-08-03T16:12:04.500Z,35.10
2022-08-03T16:15:07.913Z,35.02
2022-08-03T16:18:10.289Z,34.31
2022-08-03T16:21:14.811Z,34.25
2022-08-03T16:24:27.727Z,34.18
2022-08-03T16:27:56.653Z,34.15
2022-08-03T16:30:52.987Z,34.14
2022-08-03T16:33:55.371Z,34.16
2022-08-03T16:36:57.934Z,34.08
2022-08-03T16:40:00.418Z,34.02
2022-08-03T16:43:18.608Z,33.97
2022-08-03T16:46:22.659Z,33.97
2022-08-03T16:49:54.940Z,33.82
2022-08-03T16:52:48.446Z,33.75
2022-08-03T16:55:54.372Z,33.53
2022-08-03T16:58:56.939Z,33.49
2022-08-03T17:02:04.357Z,33.23
2022-08-03T17:05:10.541Z,32.98
2022-08-03T17:08:13.039Z,32.89
2022-08-03T17:11:15.469Z,32.96
2022-08-03T17:14:22.771Z,32.89
2022-08-03T17:17:47.720Z,32.74
2022-08-03T17:20:58.272Z,32.38
2022-08-03T17:24:18.752Z,32.11
2022-08-03T17:28:51.104Z,31.78
2022-08-03T17:31:23.555Z,31.59
2022-08-03T17:34:34.684Z,31.21
2022-08-03T17:37:57.463Z,30.76
2022-08-03T17:41:01.411Z,30.54
2022-08-03T17:44:31.965Z,30.02
2022-08-03T17:47:42.529Z,29.43
2022-08-03T17:50:57.322Z,29.08
2022-08-03T17:54:18.131Z,28.92
2022-08-03T17:58:01.313Z,28.47
2022-08-03T18:02:00.651Z,28.27
2022-08-03T18:04:41.865Z,27.98
2022-08-03T18:07:59.252Z,27.63
2022-08-03T18:11:09.752Z,27.81
2022-08-03T18:14:27.433Z,27.24
2022-08-03T18:17:58.222Z,26.97
2022-08-03T18:20:57.281Z,27.11
2022-08-03T18:24:03.003Z,27.11
2022-08-03T18:27:06.516Z,26.90
2022-08-03T18:30:09.379Z,26.83
2022-08-03T18:34:17.626Z,26.79
2022-08-03T18:36:39.668Z,26.73
2022-08-03T18:39:50.029Z,26.55
2022-08-03T18:42:55.739Z,26.56
2022-08-03T18:46:03.379Z,26.50
2022-08-03T18:49:22.802Z,26.36
2022-08-03T18:52:28.142Z,26.06
2022-08-03T18:55:35.483Z,25.92
2022-08-03T18:58:51.438Z,25.78
2022-08-03T19:02:01.226Z,25.40
2022-08-03T19:05:09.456Z,25.44
2022-08-03T19:08:45.521Z,25.56
2022-08-03T19:12:14.016Z,25.12
2022-08-03T19:15:16.507Z,25.09
2022-08-03T19:18:24.068Z,25.13
2022-08-03T19:21:30.222Z,25.05
2022-08-03T19:24:35.686Z,24.90
2022-08-03T19:27:43.494Z,24.68
2022-08-03T19:30:53.589Z,24.62
2022-08-03T19:33:58.818Z,24.08
2022-08-03T19:37:02.466Z,24.11
2022-08-03T19:40:05.497Z,24.13
2022-08-03T19:43:53.533Z,23.79
2022-08-03T19:47:06.668Z,23.74
2022-08-03T19:50:13.745Z,23.65
2022-08-03T19:53:17.390Z,23.33
2022-08-03T19:56:24.213Z,23.42
2022-08-03T19:59:27.553Z,23.56
2022-08-03T20:02:29.996Z,23.05
2022-08-03T20:05:44.945Z,22.46
2022-08-03T20:08:55.412Z,22.64
2022-08-03T20:12:01.369Z,22.87
2022-08-03T20:15:04.898Z,22.94
2022-08-03T20:18:07.587Z,22.94
2022-08-03T20:21:23.257Z,22.99
2022-08-03T20:24:28.270Z,22.88
2022-08-03T20:28:07.939Z,22.88
2022-08-03T20:31:02.412Z,22.61
2022-08-03T20:34:06.959Z,22.72
2022-08-03T20:37:12.052Z,22.54
2022-08-03T20:40:14.602Z,22.51
2022-08-03T20:43:17.081Z,22.47
2022-08-03T20:46:31.015Z,22.34
2022-08-03T20:49:45.693Z,22.29
2022-08-03T20:52:49.856Z,22.20
2022-08-03T20:56:02.093Z,22.17
2022-08-03T20:59:07.208Z,22.12
2022-08-03T21:02:19.831Z,22.07
2022-08-03T21:05:51.491Z,22.21
2022-08-03T21:09:05.132Z,21.88
2022-08-03T21:12:15.445Z,21.71
2022-08-03T21:16:12.731Z,21.62
2022-08-03T21:18:51.870Z,21.78
2022-08-03T21:21:55.403Z,21.72
2022-08-03T21:24:58.501Z,21.55
2022-08-03T21:28:01.751Z,21.32
2022-08-03T21:31:04.554Z,21.34
2022-08-03T21:34:07.486Z,21.28
2022-08-03T21:37:11.924Z,21.11
2022-08-03T21:40:17.459Z,21.28
2022-08-03T21:43:19.857Z,21.03
2022-08-03T21:46:23.033Z,20.72
2022-08-03T21:50:07.205Z,20.90
2022-08-03T21:52:51.835Z,21.20
2022-08-03T21:56:03.472Z,21.14
2022-08-03T21:59:08.026Z,20.83
2022-08-03T22:02:22.797Z,20.57
2022-08-03T22:05:42.968Z,20.30
2022-08-03T22:08:49.549Z,20.15
2022-08-03T22:11:54.295Z,20.29
2022-08-03T22:15:00.256Z,20.50
2022-08-03T22:18:04.365Z,20.60
2022-08-03T22:21:09.143Z,20.52
2022-08-03T22:24:11.745Z,20.25
2022-08-03T22:27:32.221Z,20.06
2022-08-03T22:30:35.007Z,20.02
2022-08-03T22:33:38.431Z,19.68
2022-08-03T22:36:40.970Z,19.49
2022-08-03T22:39:44.610Z,19.95
2022-08-03T22:42:50.501Z,20.06
2022-08-03T22:46:10.628Z,20.29
2022-08-03T22:49:16.682Z,20.36
2022-08-03T22:52:20.402Z,20.12
2022-08-03T22:55:25.183Z,20.25
2022-08-03T22:58:27.731Z,20.19
2022-08-03T23:01:36.103Z,20.01
2022-08-03T23:04:41.207Z,20.11
2022-08-03T23:07:45.728Z,20.02
2022-08-03T23:10:48.777Z,20.08
2022-08-03T23:13:54.177Z,19.84
2022-08-03T23:16:58.866Z,19.86
2022-08-03T23:20:08.987Z,19.92
2022-08-03T23:23:11.482Z,19.84
2022-08-03T23:26:17.287Z,19.88
2022-08-03T23:29:20.478Z,19.64
2022-08-03T23:32:25.912Z,19.51
2022-08-03T23:36:29.421Z,19.50
2022-08-03T23:39:09.706Z,19.44
2022-08-03T23:42:13.842Z,19.63
2022-08-03T23:45:19.757Z,19.61
2022-08-03T23:48:22.304Z,19.57
2022-08-03T23:51:33.513Z,19.64
2022-08-03T23:55:06.997Z,19.55
2022-08-03T23:58:21.039Z,19.67
